sensor_id;sensor_type;location;lat;lon;timestamp;temperature;humidity
44435;DHT22;30138;20.964;105.830;2023-10-31T00:04:53;27.60;99.90
44435;DHT22;30138;20.964;105.830;2023-10-31T00:10:00;27.60;99.90
44435;DHT22;30138;20.964;105.830;2023-10-31T00:15:06;27.50;99.90
44435;DHT22;30138;20.964;105.830;2023-10-31T00:20:11;27.50;99.90
44435;DHT22;30138;20.964;105.830;2023-10-31T00:25:18;27.50;99.90
44435;DHT22;30138;20.964;105.830;2023-10-31T00:30:23;27.50;99.90
44435;DHT22;30138;20.964;105.830;2023-10-31T00:35:28;27.50;99.90
44435;DHT22;30138;20.964;105.830;2023-10-31T00:40:35;27.50;99.90
44435;DHT22;30138;20.964;105.830;2023-10-31T00:45:44;27.50;99.90
44435;DHT22;30138;20.964;105.830;2023-10-31T00:50:49;27.50;99.90
44435;DHT22;30138;20.964;105.830;2023-10-31T00:55:57;27.50;99.90
44435;DHT22;30138;20.964;105.830;2023-10-31T01:01:02;27.50;99.90
44435;DHT22;30138;20.964;105.830;2023-10-31T01:06:07;27.50;99.90
44435;DHT22;30138;20.964;105.830;2023-10-31T01:11:14;27.50;99.90
44435;DHT22;30138;20.964;105.830;2023-10-31T01:16:19;27.50;99.90
44435;DHT22;30138;20.964;105.830;2023-10-31T01:21:24;27.60;99.90
44435;DHT22;30138;20.964;105.830;2023-10-31T01:26:31;27.60;99.90
44435;DHT22;30138;20.964;105.830;2023-10-31T01:31:37;27.70;99.70
44435;DHT22;30138;20.964;105.830;2023-10-31T01:36:46;27.70;99.70
44435;DHT22;30138;20.964;105.830;2023-10-31T01:41:54;27.70;99.50
44435;DHT22;30138;20.964;105.830;2023-10-31T01:47:00;27.80;99.50
44435;DHT22;30138;20.964;105.830;2023-10-31T01:52:05;27.90;99.40
44435;DHT22;30138;20.964;105.830;2023-10-31T01:57:13;27.90;99.20
44435;DHT22;30138;20.964;105.830;2023-10-31T02:02:19;28.00;99.10
44435;DHT22;30138;20.964;105.830;2023-10-31T02:07:27;28.00;99.00
44435;DHT22;30138;20.964;105.830;2023-10-31T02:12:35;28.10;98.90
44435;DHT22;30138;20.964;105.830;2023-10-31T02:17:40;28.10;98.70
44435;DHT22;30138;20.964;105.830;2023-10-31T02:22:48;28.20;98.60
44435;DHT22;30138;20.964;105.830;2023-10-31T02:27:54;28.20;98.50
44435;DHT22;30138;20.964;105.830;2023-10-31T02:33:00;28.20;98.50
44435;DHT22;30138;20.964;105.830;2023-10-31T02:38:08;28.30;98.40
44435;DHT22;30138;20.964;105.830;2023-10-31T02:43:14;28.30;98.40
44435;DHT22;30138;20.964;105.830;2023-10-31T02:48:19;28.30;98.30
44435;DHT22;30138;20.964;105.830;2023-10-31T02:53:28;28.30;98.20
44435;DHT22;30138;20.964;105.830;2023-10-31T02:58:34;28.40;98.20
44435;DHT22;30138;20.964;105.830;2023-10-31T03:03:39;28.40;98.00
44435;DHT22;30138;20.964;105.830;2023-10-31T03:08:48;28.40;97.90
44435;DHT22;30138;20.964;105.830;2023-10-31T03:13:53;28.50;97.80
44435;DHT22;30138;20.964;105.830;2023-10-31T03:18:58;28.50;97.70
44435;DHT22;30138;20.964;105.830;2023-10-31T03:24:06;28.50;97.60
44435;DHT22;30138;20.964;105.830;2023-10-31T03:29:12;28.50;97.70
44435;DHT22;30138;20.964;105.830;2023-10-31T03:34:17;28.60;97.80
44435;DHT22;30138;20.964;105.830;2023-10-31T03:39:26;28.60;97.70
44435;DHT22;30138;20.964;105.830;2023-10-31T03:44:32;28.60;97.60
44435;DHT22;30138;20.964;105.830;2023-10-31T03:49:38;28.70;97.60
44435;DHT22;30138;20.964;105.830;2023-10-31T03:54:45;28.70;97.40
44435;DHT22;30138;20.964;105.830;2023-10-31T03:59:50;28.70;97.30
44435;DHT22;30138;20.964;105.830;2023-10-31T04:04:55;28.80;97.20
44435;DHT22;30138;20.964;105.830;2023-10-31T04:10:03;28.80;97.00
44435;DHT22;30138;20.964;105.830;2023-10-31T04:15:09;28.80;96.20
44435;DHT22;30138;20.964;105.830;2023-10-31T04:20:16;28.60;89.10
44435;DHT22;30138;20.964;105.830;2023-10-31T04:25:26;28.40;84.90
44435;DHT22;30138;20.964;105.830;2023-10-31T04:30:32;28.20;81.10
44435;DHT22;30138;20.964;105.830;2023-10-31T04:35:38;28.10;83.00
44435;DHT22;30138;20.964;105.830;2023-10-31T04:40:45;28.00;76.60
44435;DHT22;30138;20.964;105.830;2023-10-31T04:45:51;27.90;79.50
44435;DHT22;30138;20.964;105.830;2023-10-31T04:50:57;27.70;74.20
44435;DHT22;30138;20.964;105.830;2023-10-31T04:56:04;27.70;77.90
44435;DHT22;30138;20.964;105.830;2023-10-31T05:01:15;27.70;73.60
44435;DHT22;30138;20.964;105.830;2023-10-31T05:06:20;27.70;74.70
44435;DHT22;30138;20.964;105.830;2023-10-31T05:11:27;27.60;74.30
44435;DHT22;30138;20.964;105.830;2023-10-31T05:16:32;27.60;72.00
44435;DHT22;30138;20.964;105.830;2023-10-31T05:21:44;27.50;72.50
44435;DHT22;30138;20.964;105.830;2023-10-31T05:26:52;27.70;74.70
44435;DHT22;30138;20.964;105.830;2023-10-31T05:31:57;27.80;76.50
44435;DHT22;30138;20.964;105.830;2023-10-31T05:37:03;28.00;77.80
44435;DHT22;30138;20.964;105.830;2023-10-31T05:42:11;28.20;79.10
44435;DHT22;30138;20.964;105.830;2023-10-31T05:47:16;28.30;80.10
44435;DHT22;30138;20.964;105.830;2023-10-31T05:52:21;28.40;81.20
44435;DHT22;30138;20.964;105.830;2023-10-31T05:57:28;28.50;82.30
44435;DHT22;30138;20.964;105.830;2023-10-31T06:02:34;28.60;83.30
44435;DHT22;30138;20.964;105.830;2023-10-31T06:07:39;28.70;84.20
44435;DHT22;30138;20.964;105.830;2023-10-31T06:12:45;28.80;85.00
44435;DHT22;30138;20.964;105.830;2023-10-31T06:17:51;28.90;85.90
44435;DHT22;30138;20.964;105.830;2023-10-31T06:22:56;29.00;86.60
44435;DHT22;30138;20.964;105.830;2023-10-31T06:28:02;29.00;87.30
44435;DHT22;30138;20.964;105.830;2023-10-31T06:33:08;29.10;88.00
44435;DHT22;30138;20.964;105.830;2023-10-31T06:38:13;29.10;88.70
44435;DHT22;30138;20.964;105.830;2023-10-31T06:43:21;29.20;89.30
44435;DHT22;30138;20.964;105.830;2023-10-31T06:48:27;29.30;89.90
44435;DHT22;30138;20.964;105.830;2023-10-31T06:53:32;29.30;90.80
44435;DHT22;30138;20.964;105.830;2023-10-31T06:58:40;29.40;91.10
44435;DHT22;30138;20.964;105.830;2023-10-31T07:03:45;29.50;91.20
44435;DHT22;30138;20.964;105.830;2023-10-31T07:08:51;29.50;91.30
44435;DHT22;30138;20.964;105.830;2023-10-31T07:13:58;29.50;91.30
44435;DHT22;30138;20.964;105.830;2023-10-31T07:19:03;29.60;91.40
44435;DHT22;30138;20.964;105.830;2023-10-31T07:24:09;29.60;91.50
44435;DHT22;30138;20.964;105.830;2023-10-31T07:29:15;29.60;91.70
44435;DHT22;30138;20.964;105.830;2023-10-31T07:34:20;29.60;91.80
44435;DHT22;30138;20.964;105.830;2023-10-31T07:39:25;29.60;92.00
44435;DHT22;30138;20.964;105.830;2023-10-31T07:44:32;29.60;92.00
44435;DHT22;30138;20.964;105.830;2023-10-31T07:49:37;29.70;92.10
44435;DHT22;30138;20.964;105.830;2023-10-31T07:54:43;29.70;92.00
44435;DHT22;30138;20.964;105.830;2023-10-31T07:59:50;29.70;92.00
44435;DHT22;30138;20.964;105.830;2023-10-31T08:04:56;29.70;92.00
44435;DHT22;30138;20.964;105.830;2023-10-31T08:10:01;29.70;92.10
44435;DHT22;30138;20.964;105.830;2023-10-31T08:15:09;29.70;92.10
44435;DHT22;30138;20.964;105.830;2023-10-31T08:20:15;29.70;92.10
44435;DHT22;30138;20.964;105.830;2023-10-31T08:25:22;29.80;92.00
44435;DHT22;30138;20.964;105.830;2023-10-31T08:30:31;29.80;91.90
44435;DHT22;30138;20.964;105.830;2023-10-31T08:35:37;29.80;91.90
44435;DHT22;30138;20.964;105.830;2023-10-31T08:40:43;29.80;91.90
44435;DHT22;30138;20.964;105.830;2023-10-31T08:45:54;29.80;91.90
44435;DHT22;30138;20.964;105.830;2023-10-31T08:50:59;29.80;91.80
44435;DHT22;30138;20.964;105.830;2023-10-31T08:56:05;29.80;91.70
44435;DHT22;30138;20.964;105.830;2023-10-31T09:01:14;29.80;91.60
44435;DHT22;30138;20.964;105.830;2023-10-31T09:06:21;29.80;91.60
44435;DHT22;30138;20.964;105.830;2023-10-31T09:11:27;29.80;91.60
44435;DHT22;30138;20.964;105.830;2023-10-31T09:16:34;29.80;91.70
44435;DHT22;30138;20.964;105.830;2023-10-31T09:21:40;29.80;91.70
44435;DHT22;30138;20.964;105.830;2023-10-31T09:26:48;29.80;91.80
44435;DHT22;30138;20.964;105.830;2023-10-31T09:31:55;29.80;91.70
44435;DHT22;30138;20.964;105.830;2023-10-31T09:37:02;29.80;91.70
44435;DHT22;30138;20.964;105.830;2023-10-31T09:42:07;29.80;92.10
44435;DHT22;30138;20.964;105.830;2023-10-31T09:47:15;29.80;91.80
44435;DHT22;30138;20.964;105.830;2023-10-31T09:52:20;29.80;91.60
44435;DHT22;30138;20.964;105.830;2023-10-31T09:57:27;29.80;91.50
44435;DHT22;30138;20.964;105.830;2023-10-31T10:02:36;29.80;91.40
44435;DHT22;30138;20.964;105.830;2023-10-31T10:07:42;29.80;91.50
44435;DHT22;30138;20.964;105.830;2023-10-31T10:12:47;29.80;91.60
44435;DHT22;30138;20.964;105.830;2023-10-31T10:17:54;29.80;91.70
44435;DHT22;30138;20.964;105.830;2023-10-31T10:23:03;29.80;91.70
44435;DHT22;30138;20.964;105.830;2023-10-31T10:28:08;29.80;91.80
44435;DHT22;30138;20.964;105.830;2023-10-31T10:33:17;29.80;91.80
44435;DHT22;30138;20.964;105.830;2023-10-31T10:38:25;29.80;91.70
44435;DHT22;30138;20.964;105.830;2023-10-31T10:43:35;29.80;91.40
44435;DHT22;30138;20.964;105.830;2023-10-31T10:48:44;29.80;91.20
44435;DHT22;30138;20.964;105.830;2023-10-31T10:53:53;29.80;91.40
44435;DHT22;30138;20.964;105.830;2023-10-31T10:59:03;29.80;91.30
44435;DHT22;30138;20.964;105.830;2023-10-31T11:04:13;29.80;91.30
44435;DHT22;30138;20.964;105.830;2023-10-31T11:09:19;29.80;91.40
44435;DHT22;30138;20.964;105.830;2023-10-31T11:14:25;29.80;91.30
44435;DHT22;30138;20.964;105.830;2023-10-31T11:19:32;29.80;91.20
44435;DHT22;30138;20.964;105.830;2023-10-31T11:24:38;29.80;91.30
44435;DHT22;30138;20.964;105.830;2023-10-31T11:29:43;29.80;91.20
44435;DHT22;30138;20.964;105.830;2023-10-31T11:34:50;29.80;91.20
44435;DHT22;30138;20.964;105.830;2023-10-31T11:45:26;29.80;91.20
44435;DHT22;30138;20.964;105.830;2023-10-31T11:50:33;29.80;91.10
44435;DHT22;30138;20.964;105.830;2023-10-31T11:55:40;29.80;91.30
44435;DHT22;30138;20.964;105.830;2023-10-31T12:00:45;29.80;91.30
44435;DHT22;30138;20.964;105.830;2023-10-31T12:05:54;29.80;91.40
44435;DHT22;30138;20.964;105.830;2023-10-31T12:11:06;29.80;91.30
44435;DHT22;30138;20.964;105.830;2023-10-31T12:16:12;29.80;91.20
44435;DHT22;30138;20.964;105.830;2023-10-31T12:21:20;29.80;91.20
44435;DHT22;30138;20.964;105.830;2023-10-31T12:26:38;29.80;91.20
44435;DHT22;30138;20.964;105.830;2023-10-31T12:31:44;29.80;91.20
44435;DHT22;30138;20.964;105.830;2023-10-31T12:36:52;29.80;91.10
44435;DHT22;30138;20.964;105.830;2023-10-31T12:42:02;29.80;91.00
44435;DHT22;30138;20.964;105.830;2023-10-31T12:47:07;29.80;91.10
44435;DHT22;30138;20.964;105.830;2023-10-31T12:52:16;29.70;91.60
44435;DHT22;30138;20.964;105.830;2023-10-31T12:57:22;29.80;91.90
44435;DHT22;30138;20.964;105.830;2023-10-31T13:02:32;29.80;91.70
44435;DHT22;30138;20.964;105.830;2023-10-31T13:07:39;29.80;91.40
44435;DHT22;30138;20.964;105.830;2023-10-31T13:12:44;29.80;91.10
44435;DHT22;30138;20.964;105.830;2023-10-31T13:17:50;29.80;90.80
44435;DHT22;30138;20.964;105.830;2023-10-31T13:22:57;29.80;90.70
44435;DHT22;30138;20.964;105.830;2023-10-31T13:28:05;29.80;90.60
44435;DHT22;30138;20.964;105.830;2023-10-31T13:33:13;29.80;90.50
44435;DHT22;30138;20.964;105.830;2023-10-31T13:38:20;29.80;90.40
44435;DHT22;30138;20.964;105.830;2023-10-31T13:43:26;29.90;90.20
44435;DHT22;30138;20.964;105.830;2023-10-31T13:48:32;29.90;90.00
44435;DHT22;30138;20.964;105.830;2023-10-31T13:53:40;29.80;90.00
44435;DHT22;30138;20.964;105.830;2023-10-31T13:58:45;29.80;90.10
44435;DHT22;30138;20.964;105.830;2023-10-31T14:03:51;29.80;90.20
44435;DHT22;30138;20.964;105.830;2023-10-31T14:08:59;29.80;90.50
44435;DHT22;30138;20.964;105.830;2023-10-31T14:14:06;29.80;91.00
44435;DHT22;30138;20.964;105.830;2023-10-31T14:19:14;29.80;91.30
44435;DHT22;30138;20.964;105.830;2023-10-31T14:24:22;29.80;91.40
44435;DHT22;30138;20.964;105.830;2023-10-31T14:29:27;29.90;91.50
44435;DHT22;30138;20.964;105.830;2023-10-31T14:34:33;29.90;91.60
44435;DHT22;30138;20.964;105.830;2023-10-31T14:39:41;29.90;91.70
44435;DHT22;30138;20.964;105.830;2023-10-31T14:44:47;29.90;91.80
44435;DHT22;30138;20.964;105.830;2023-10-31T14:49:52;29.90;91.90
44435;DHT22;30138;20.964;105.830;2023-10-31T14:55:00;29.90;91.90
44435;DHT22;30138;20.964;105.830;2023-10-31T15:00:05;29.90;92.00
44435;DHT22;30138;20.964;105.830;2023-10-31T15:05:14;29.90;92.00
44435;DHT22;30138;20.964;105.830;2023-10-31T15:10:21;29.90;91.80
44435;DHT22;30138;20.964;105.830;2023-10-31T15:15:27;29.90;92.10
44435;DHT22;30138;20.964;105.830;2023-10-31T15:20:52;29.90;91.90
44435;DHT22;30138;20.964;105.830;2023-10-31T15:25:59;29.90;92.10
44435;DHT22;30138;20.964;105.830;2023-10-31T15:31:06;29.90;92.20
44435;DHT22;30138;20.964;105.830;2023-10-31T15:36:14;29.90;92.20
44435;DHT22;30138;20.964;105.830;2023-10-31T15:41:21;29.80;92.30
44435;DHT22;30138;20.964;105.830;2023-10-31T15:46:28;29.80;92.40
44435;DHT22;30138;20.964;105.830;2023-10-31T15:51:36;29.80;92.50
44435;DHT22;30138;20.964;105.830;2023-10-31T15:56:42;29.80;92.50
44435;DHT22;30138;20.964;105.830;2023-10-31T16:01:48;29.80;92.50
44435;DHT22;30138;20.964;105.830;2023-10-31T16:06:56;29.80;92.60
44435;DHT22;30138;20.964;105.830;2023-10-31T16:12:04;29.80;92.70
44435;DHT22;30138;20.964;105.830;2023-10-31T16:17:11;29.80;92.70
44435;DHT22;30138;20.964;105.830;2023-10-31T16:22:20;29.80;92.70
44435;DHT22;30138;20.964;105.830;2023-10-31T16:27:27;29.70;92.80
44435;DHT22;30138;20.964;105.830;2023-10-31T16:32:33;29.70;92.80
44435;DHT22;30138;20.964;105.830;2023-10-31T16:37:43;29.70;92.80
44435;DHT22;30138;20.964;105.830;2023-10-31T16:42:49;29.70;92.80
44435;DHT22;30138;20.964;105.830;2023-10-31T16:47:55;29.70;92.90
44435;DHT22;30138;20.964;105.830;2023-10-31T16:53:05;29.70;92.90
44435;DHT22;30138;20.964;105.830;2023-10-31T16:58:11;29.70;93.00
44435;DHT22;30138;20.964;105.830;2023-10-31T17:03:18;29.70;93.00
44435;DHT22;30138;20.964;105.830;2023-10-31T17:08:28;29.70;93.00
44435;DHT22;30138;20.964;105.830;2023-10-31T17:13:35;29.70;93.10
44435;DHT22;30138;20.964;105.830;2023-10-31T17:18:42;29.60;93.10
44435;DHT22;30138;20.964;105.830;2023-10-31T17:23:50;29.60;93.20
44435;DHT22;30138;20.964;105.830;2023-10-31T17:28:57;29.60;93.20
44435;DHT22;30138;20.964;105.830;2023-10-31T17:34:03;29.60;93.20
44435;DHT22;30138;20.964;105.830;2023-10-31T17:39:12;29.60;93.20
44435;DHT22;30138;20.964;105.830;2023-10-31T17:44:18;29.60;93.20
44435;DHT22;30138;20.964;105.830;2023-10-31T17:49:24;29.60;93.60
44435;DHT22;30138;20.964;105.830;2023-10-31T17:54:32;29.50;93.40
44435;DHT22;30138;20.964;105.830;2023-10-31T17:59:40;29.50;93.50
44435;DHT22;30138;20.964;105.830;2023-10-31T18:04:46;29.50;93.60
44435;DHT22;30138;20.964;105.830;2023-10-31T18:09:55;29.50;93.70
44435;DHT22;30138;20.964;105.830;2023-10-31T18:15:01;29.50;93.80
44435;DHT22;30138;20.964;105.830;2023-10-31T18:20:09;29.50;93.80
44435;DHT22;30138;20.964;105.830;2023-10-31T18:25:16;29.40;93.90
44435;DHT22;30138;20.964;105.830;2023-10-31T18:30:24;29.40;94.00
44435;DHT22;30138;20.964;105.830;2023-10-31T18:35:30;29.40;94.00
44435;DHT22;30138;20.964;105.830;2023-10-31T18:40:40;29.40;95.10
44435;DHT22;30138;20.964;105.830;2023-10-31T18:45:47;29.50;94.70
44435;DHT22;30138;20.964;105.830;2023-10-31T18:50:53;29.50;93.60
44435;DHT22;30138;20.964;105.830;2023-10-31T18:56:02;29.50;93.20
44435;DHT22;30138;20.964;105.830;2023-10-31T19:01:09;29.50;93.20
44435;DHT22;30138;20.964;105.830;2023-10-31T19:06:16;29.50;93.00
44435;DHT22;30138;20.964;105.830;2023-10-31T19:11:25;29.40;93.00
44435;DHT22;30138;20.964;105.830;2023-10-31T19:16:31;29.40;93.10
44435;DHT22;30138;20.964;105.830;2023-10-31T19:21:37;29.40;93.30
44435;DHT22;30138;20.964;105.830;2023-10-31T19:26:46;29.40;93.40
44435;DHT22;30138;20.964;105.830;2023-10-31T19:31:54;29.40;93.50
44435;DHT22;30138;20.964;105.830;2023-10-31T19:37:02;29.30;93.60
44435;DHT22;30138;20.964;105.830;2023-10-31T19:42:11;29.30;93.70
44435;DHT22;30138;20.964;105.830;2023-10-31T19:47:17;29.30;93.70
44435;DHT22;30138;20.964;105.830;2023-10-31T19:52:24;29.30;93.80
44435;DHT22;30138;20.964;105.830;2023-10-31T19:57:32;29.30;93.90
44435;DHT22;30138;20.964;105.830;2023-10-31T20:02:39;29.30;93.90
44435;DHT22;30138;20.964;105.830;2023-10-31T20:07:46;29.20;93.80
44435;DHT22;30138;20.964;105.830;2023-10-31T20:12:54;29.20;93.90
44435;DHT22;30138;20.964;105.830;2023-10-31T20:18:01;29.20;94.20
44435;DHT22;30138;20.964;105.830;2023-10-31T20:23:07;29.20;94.00
44435;DHT22;30138;20.964;105.830;2023-10-31T20:28:15;29.20;94.00
44435;DHT22;30138;20.964;105.830;2023-10-31T20:33:21;29.20;94.00
44435;DHT22;30138;20.964;105.830;2023-10-31T20:38:27;29.20;94.10
44435;DHT22;30138;20.964;105.830;2023-10-31T20:43:36;29.10;94.10
44435;DHT22;30138;20.964;105.830;2023-10-31T20:48:42;29.10;94.10
44435;DHT22;30138;20.964;105.830;2023-10-31T20:53:48;29.10;94.20
44435;DHT22;30138;20.964;105.830;2023-10-31T20:58:56;29.10;94.20
44435;DHT22;30138;20.964;105.830;2023-10-31T21:04:02;29.10;94.20
44435;DHT22;30138;20.964;105.830;2023-10-31T21:09:09;29.10;94.30
44435;DHT22;30138;20.964;105.830;2023-10-31T21:14:18;29.10;94.40
44435;DHT22;30138;20.964;105.830;2023-10-31T21:19:25;29.10;94.40
44435;DHT22;30138;20.964;105.830;2023-10-31T21:24:31;29.00;94.50
44435;DHT22;30138;20.964;105.830;2023-10-31T21:29:39;29.00;94.60
44435;DHT22;30138;20.964;105.830;2023-10-31T21:34:45;29.00;94.80
44435;DHT22;30138;20.964;105.830;2023-10-31T21:39:52;29.00;94.90
44435;DHT22;30138;20.964;105.830;2023-10-31T21:45:00;29.00;95.00
44435;DHT22;30138;20.964;105.830;2023-10-31T21:50:07;29.00;95.10
44435;DHT22;30138;20.964;105.830;2023-10-31T21:55:13;29.00;95.10
44435;DHT22;30138;20.964;105.830;2023-10-31T22:00:21;29.00;95.10
44435;DHT22;30138;20.964;105.830;2023-10-31T22:05:28;29.00;95.20
44435;DHT22;30138;20.964;105.830;2023-10-31T22:10:35;29.00;95.30
44435;DHT22;30138;20.964;105.830;2023-10-31T22:15:43;29.00;95.30
44435;DHT22;30138;20.964;105.830;2023-10-31T22:20:49;28.90;95.30
44435;DHT22;30138;20.964;105.830;2023-10-31T22:25:55;28.90;95.40
44435;DHT22;30138;20.964;105.830;2023-10-31T22:31:04;28.90;95.40
44435;DHT22;30138;20.964;105.830;2023-10-31T22:36:10;28.90;95.40
44435;DHT22;30138;20.964;105.830;2023-10-31T22:41:16;28.90;95.50
44435;DHT22;30138;20.964;105.830;2023-10-31T22:46:25;28.90;95.40
44435;DHT22;30138;20.964;105.830;2023-10-31T22:51:31;28.90;95.40
44435;DHT22;30138;20.964;105.830;2023-10-31T22:56:37;28.90;95.30
44435;DHT22;30138;20.964;105.830;2023-10-31T23:01:45;28.90;95.30
44435;DHT22;30138;20.964;105.830;2023-10-31T23:06:52;28.90;95.30
44435;DHT22;30138;20.964;105.830;2023-10-31T23:11:58;28.80;95.30
44435;DHT22;30138;20.964;105.830;2023-10-31T23:17:05;28.80;95.30
44435;DHT22;30138;20.964;105.830;2023-10-31T23:22:11;28.80;95.40
44435;DHT22;30138;20.964;105.830;2023-10-31T23:27:17;28.80;95.30
44435;DHT22;30138;20.964;105.830;2023-10-31T23:32:25;28.80;95.30
44435;DHT22;30138;20.964;105.830;2023-10-31T23:37:32;28.80;95.30
44435;DHT22;30138;20.964;105.830;2023-10-31T23:42:39;28.80;95.40
44435;DHT22;30138;20.964;105.830;2023-10-31T23:47:48;28.80;95.60
44435;DHT22;30138;20.964;105.830;2023-10-31T23:52:54;28.80;95.70
44435;DHT22;30138;20.964;105.830;2023-10-31T23:58:01;28.80;95.80
